createdAt,value
2018-09-12T00:00:34.836Z,96425.80
2018-09-12T00:03:09.649Z,96417.32
2018-09-12T00:05:44.340Z,96415.61
2018-09-12T00:08:19.164Z,96411.17
2018-09-12T00:10:54.311Z,96409.14
2018-09-12T00:13:29.111Z,96414.59
2018-09-12T00:16:03.404Z,96407.62
2018-09-12T00:18:38.184Z,96403.28
2018-09-12T00:21:12.537Z,96402.17
2018-09-12T00:23:47.287Z,96401.06
2018-09-12T00:26:21.933Z,96394.59
2018-09-12T00:28:56.344Z,96398.94
2018-09-12T00:31:30.648Z,96393.19
2018-09-12T00:34:05.301Z,96392.95
2018-09-12T00:36:39.712Z,96389.20
2018-09-12T00:39:14.015Z,96383.35
2018-09-12T00:41:48.437Z,96390.11
2018-09-12T00:44:23.643Z,96385.16
2018-09-12T00:46:58.534Z,96385.66
2018-09-12T00:49:33.187Z,96384.30
2018-09-12T00:52:10.491Z,96394.08
2018-09-12T00:54:44.989Z,96384.69
2018-09-12T00:57:21.637Z,96381.25
2018-09-12T00:59:56.402Z,96385.69
2018-09-12T01:02:31.124Z,96382.22
2018-09-12T01:05:05.592Z,96379.67
2018-09-12T01:07:40.027Z,96383.50
2018-09-12T01:10:14.799Z,96378.96
2018-09-12T01:12:49.673Z,96387.69
2018-09-12T01:15:24.228Z,96385.88
2018-09-12T01:17:58.908Z,96386.55
2018-09-12T01:20:33.368Z,96383.76
2018-09-12T01:23:07.880Z,96373.87
2018-09-12T01:25:42.425Z,96378.88
2018-09-12T01:28:17.107Z,96375.44
2018-09-12T01:30:51.520Z,96378.37
2018-09-12T01:33:26.065Z,96374.94
2018-09-12T01:36:00.512Z,96375.13
2018-09-12T01:38:35.485Z,96376.84
2018-09-12T01:41:09.815Z,96371.70
2018-09-12T01:43:44.229Z,96374.94
2018-09-12T01:46:18.760Z,96367.66
2018-09-12T01:48:53.157Z,96362.44
2018-09-12T01:51:27.495Z,96362.33
2018-09-12T01:54:01.803Z,96359.52
2018-09-12T01:56:36.085Z,96357.39
2018-09-12T01:59:11.148Z,96357.39
2018-09-12T02:01:46.188Z,96361.63
2018-09-12T02:04:20.447Z,96359.41
2018-09-12T02:06:55.044Z,96359.39
2018-09-12T02:09:29.712Z,96365.58
2018-09-12T02:12:04.682Z,96360.53
2018-09-12T02:14:39.448Z,96358.91
2018-09-12T02:17:13.955Z,96367.17
2018-09-12T02:19:48.288Z,96359.30
2018-09-12T02:22:22.584Z,96358.70
2018-09-12T02:24:57.377Z,96347.95
2018-09-12T02:27:32.160Z,96339.09
2018-09-12T02:30:06.729Z,96344.83
2018-09-12T02:32:41.257Z,96335.85
2018-09-12T02:35:15.965Z,96330.11
2018-09-12T02:37:50.361Z,96331.81
2018-09-12T02:40:24.936Z,96332.91
2018-09-12T02:42:59.356Z,96326.05
2018-09-12T02:45:33.644Z,96317.06
2018-09-12T02:48:08.109Z,96314.00
2018-09-12T02:50:42.765Z,96314.00
2018-09-12T02:53:17.312Z,96312.37
2018-09-12T02:55:51.704Z,96312.27
2018-09-12T02:58:26.200Z,96310.29
2018-09-12T03:01:00.636Z,96305.94
2018-09-12T03:03:35.033Z,96307.95
2018-09-12T03:06:09.504Z,96303.91
2018-09-12T03:08:43.768Z,96299.67
2018-09-12T03:11:18.543Z,96297.36
2018-09-12T03:13:53.417Z,96296.23
2018-09-12T03:16:27.841Z,96298.05
2018-09-12T03:19:02.465Z,96292.89
2018-09-12T03:21:36.756Z,96290.58
2018-09-12T03:24:11.164Z,96285.20
2018-09-12T03:26:45.604Z,96283.28
2018-09-12T03:29:20.192Z,96279.31
2018-09-12T03:31:55.336Z,96272.96
2018-09-12T03:34:30.509Z,96275.66
2018-09-12T03:37:04.791Z,96270.84
2018-09-12T03:39:39.873Z,96275.33
2018-09-12T03:42:14.471Z,96273.91
2018-09-12T03:44:48.892Z,96270.25
2018-09-12T03:47:23.395Z,96264.01
2018-09-12T03:49:58.088Z,96265.43
2018-09-12T03:52:32.533Z,96262.23
2018-09-12T03:55:07.280Z,96261.00
2018-09-12T03:57:42.131Z,96265.93
2018-09-12T04:00:17.368Z,96260.21
2018-09-12T04:02:52.438Z,96254.66
2018-09-12T04:05:27.664Z,96257.28
2018-09-12T04:08:02.169Z,96255.86
2018-09-12T04:10:36.799Z,96254.62
2018-09-12T04:13:11.251Z,96253.20
2018-09-12T04:15:45.845Z,96248.02
2018-09-12T04:18:20.624Z,96245.06
2018-09-12T04:20:55.188Z,96248.33
2018-09-12T04:23:30.072Z,96249.33
2018-09-12T04:26:05.571Z,96248.27
2018-09-12T04:28:40.456Z,96254.49
2018-09-12T04:31:14.986Z,96256.88
2018-09-12T04:33:49.624Z,96260.19
2018-09-12T04:36:27.198Z,96257.83
2018-09-12T04:39:03.446Z,96257.76
2018-09-12T04:41:40.357Z,96265.92
2018-09-12T04:44:15.372Z,96256.33
2018-09-12T04:46:50.309Z,96257.19
2018-09-12T04:49:25.477Z,96253.83
2018-09-12T04:52:00.243Z,96251.09
2018-09-12T04:54:34.643Z,96248.98
2018-09-12T04:57:09.329Z,96251.47
2018-09-12T04:59:44.125Z,96254.33
2018-09-12T05:02:18.940Z,96249.98
2018-09-12T05:04:53.860Z,96248.48
2018-09-12T05:07:28.270Z,96244.05
2018-09-12T05:10:03.648Z,96242.17
2018-09-12T05:12:38.277Z,96245.91
2018-09-12T05:15:12.739Z,96243.48
2018-09-12T05:17:47.225Z,96247.41
2018-09-12T05:20:21.656Z,96243.94
2018-09-12T05:22:56.302Z,96255.83
2018-09-12T05:25:31.184Z,96253.03
2018-09-12T05:28:06.091Z,96250.34
2018-09-12T05:30:40.787Z,96247.72
2018-09-12T05:33:15.213Z,96245.72
2018-09-12T05:35:50.475Z,96245.29
2018-09-12T05:38:25.204Z,96255.69
2018-09-12T05:41:00.194Z,96255.92
2018-09-12T05:43:34.736Z,96258.65
2018-09-12T05:46:09.235Z,96259.17
2018-09-12T05:48:43.778Z,96258.40
2018-09-12T05:51:18.462Z,96254.34
2018-09-12T05:53:53.228Z,96255.27
2018-09-12T05:56:27.791Z,96258.14
2018-09-12T05:59:02.316Z,96254.55
2018-09-12T06:01:36.903Z,96252.45
2018-09-12T06:04:11.652Z,96244.27
2018-09-12T06:06:46.272Z,96252.48
2018-09-12T06:09:21.088Z,96252.11
2018-09-12T06:11:55.573Z,96245.31
2018-09-12T06:14:30.416Z,96249.59
2018-09-12T06:17:04.968Z,96253.36
2018-09-12T06:19:39.520Z,96257.23
2018-09-12T06:22:16.105Z,96256.86
2018-09-12T06:24:51.579Z,96255.39
2018-09-12T06:27:26.703Z,96247.16
2018-09-12T06:30:01.855Z,96251.09
2018-09-12T06:32:36.819Z,96250.41
2018-09-12T06:35:11.541Z,96249.82
2018-09-12T06:37:46.266Z,96249.53
2018-09-12T06:40:21.044Z,96253.98
2018-09-12T06:42:56.000Z,96248.30
2018-09-12T06:45:31.017Z,96250.11
2018-09-12T06:48:05.887Z,96253.05
2018-09-12T06:50:40.620Z,96248.08
2018-09-12T06:53:15.811Z,96250.80
2018-09-12T06:55:50.232Z,96247.16
2018-09-12T06:58:24.501Z,96248.94
2018-09-12T07:00:58.831Z,96244.03
2018-09-12T07:03:34.494Z,96240.12
2018-09-12T07:06:09.229Z,96242.06
2018-09-12T07:08:43.672Z,96238.84
2018-09-12T07:11:18.256Z,96240.56
2018-09-12T07:13:52.602Z,96243.34
2018-09-12T07:16:27.436Z,96236.91
2018-09-12T07:19:02.351Z,96248.46
2018-09-12T07:21:37.265Z,96247.30
2018-09-12T07:24:11.819Z,96248.07
2018-09-12T07:26:46.639Z,96247.45
2018-09-12T07:29:21.583Z,96251.71
2018-09-12T07:31:55.892Z,96256.14
2018-09-12T07:34:30.237Z,96260.42
2018-09-12T07:37:04.760Z,96266.84
2018-09-12T07:39:39.384Z,96258.37
2018-09-12T07:42:14.000Z,96255.15
2018-09-12T07:44:48.475Z,96256.84
2018-09-12T07:47:22.983Z,96258.87
2018-09-12T07:49:57.600Z,96260.77
2018-09-12T07:52:31.897Z,96260.19
2018-09-12T07:55:07.141Z,96260.27
2018-09-12T07:57:47.719Z,96260.02
2018-09-12T08:00:22.315Z,96257.81
2018-09-12T08:02:57.111Z,96264.70
2018-09-12T08:05:31.964Z,96271.73
2018-09-12T08:08:06.959Z,96272.38
2018-09-12T08:10:41.712Z,96280.48
2018-09-12T08:13:16.008Z,96282.61
2018-09-12T08:15:50.786Z,96282.91
2018-09-12T08:18:25.492Z,96285.11
2018-09-12T08:20:59.847Z,96289.65
2018-09-12T08:23:34.101Z,96295.02
2018-09-12T08:26:09.271Z,96291.73
2018-09-12T08:28:43.842Z,96294.28
2018-09-12T08:31:18.605Z,96290.98
2018-09-12T08:33:53.184Z,96291.73
2018-09-12T08:36:27.685Z,96295.88
2018-09-12T08:39:02.637Z,96288.81
2018-09-12T08:41:37.184Z,96290.44
2018-09-12T08:44:11.569Z,96290.45
2018-09-12T08:46:46.412Z,96291.47
2018-09-12T08:49:20.877Z,96292.22
2018-09-12T08:51:55.351Z,96296.27
2018-09-12T08:54:29.726Z,96293.78
2018-09-12T08:57:04.373Z,96293.47
2018-09-12T08:59:38.846Z,96295.50
2018-09-12T09:02:13.184Z,96294.20
2018-09-12T09:04:48.183Z,96291.59
2018-09-12T09:07:22.937Z,96297.53
2018-09-12T09:09:57.282Z,96301.56
2018-09-12T09:12:31.584Z,96295.97
2018-09-12T09:15:06.427Z,96293.88
2018-09-12T09:17:41.299Z,96286.42
2018-09-12T09:20:16.252Z,96287.22
2018-09-12T09:22:50.712Z,96290.44
2018-09-12T09:25:25.239Z,96280.02
2018-09-12T09:27:59.596Z,96282.13
2018-09-12T09:30:34.569Z,96286.12
2018-09-12T09:33:09.147Z,96282.81
2018-09-12T09:35:43.660Z,96275.00
2018-09-12T09:38:18.536Z,96274.67
2018-09-12T09:40:52.894Z,96275.93
2018-09-12T09:43:27.330Z,96268.35
2018-09-12T09:46:02.432Z,96270.45
2018-09-12T09:48:37.283Z,96268.55
2018-09-12T09:51:12.042Z,96266.18
2018-09-12T09:53:47.256Z,96271.19
2018-09-12T09:56:22.379Z,96259.00
2018-09-12T09:58:57.406Z,96259.20
2018-09-12T10:01:37.326Z,96259.41
2018-09-12T10:04:16.161Z,96259.51
2018-09-12T10:06:55.788Z,96259.02
2018-09-12T10:09:31.024Z,96259.22
2018-09-12T10:12:05.723Z,96258.81
2018-09-12T10:14:40.333Z,96264.88
2018-09-12T10:17:14.874Z,96263.12
2018-09-12T10:19:49.704Z,96266.84
2018-09-12T10:22:24.291Z,96268.19
2018-09-12T10:24:58.952Z,96268.22
2018-09-12T10:27:33.761Z,96265.45
2018-09-12T10:30:09.160Z,96266.02
2018-09-12T10:32:43.768Z,96264.25
2018-09-12T10:35:18.305Z,96260.03
2018-09-12T10:37:54.980Z,96260.16
2018-09-12T10:40:29.626Z,96261.47
2018-09-12T10:43:07.837Z,96259.23
2018-09-12T10:45:42.741Z,96260.38
2018-09-12T10:48:17.344Z,96250.23
2018-09-12T10:50:52.549Z,96249.80
2018-09-12T10:53:27.021Z,96241.11
2018-09-12T10:56:01.891Z,96242.47
2018-09-12T10:58:36.420Z,96242.56
2018-09-12T11:01:11.985Z,96235.69
2018-09-12T11:03:46.459Z,96232.05
2018-09-12T11:06:21.671Z,96235.01
2018-09-12T11:08:59.403Z,96230.78
2018-09-12T11:11:34.312Z,96226.92
2018-09-12T11:14:10.096Z,96222.31
2018-09-12T11:16:44.649Z,96213.76
2018-09-12T11:19:20.722Z,96211.12
2018-09-12T11:21:55.965Z,96203.33
2018-09-12T11:24:30.673Z,96202.73
2018-09-12T11:27:07.537Z,96205.08
2018-09-12T11:29:42.000Z,96192.38
2018-09-12T11:32:16.485Z,96193.56
2018-09-12T11:34:50.927Z,96197.16
2018-09-12T11:37:25.524Z,96190.70
2018-09-12T11:40:00.668Z,96184.54
2018-09-12T11:42:36.018Z,96182.25
2018-09-12T11:45:10.431Z,96180.94
2018-09-12T11:47:45.414Z,96181.19
2018-09-12T11:50:20.416Z,96179.30
2018-09-12T11:52:55.183Z,96179.93
2018-09-12T11:55:29.651Z,96174.61
2018-09-12T11:58:04.723Z,96178.31
2018-09-12T12:00:39.292Z,96171.38
2018-09-12T12:03:13.679Z,96176.41
2018-09-12T12:05:48.124Z,96176.45
2018-09-12T12:08:22.740Z,96170.08
2018-09-12T12:10:57.439Z,96169.17
2018-09-12T12:13:32.313Z,96171.39
2018-09-12T12:16:07.012Z,96167.06
2018-09-12T12:18:41.703Z,96166.21
2018-09-12T12:21:16.186Z,96157.36
2018-09-12T12:23:50.748Z,96143.45
2018-09-12T12:26:25.196Z,96147.97
2018-09-12T12:28:59.604Z,96143.42
2018-09-12T12:31:34.475Z,96130.86
2018-09-12T12:34:09.275Z,96129.37
2018-09-12T12:36:43.636Z,96125.67
2018-09-12T12:39:18.390Z,96121.87
2018-09-12T12:41:53.013Z,96122.73
2018-09-12T12:44:27.852Z,96115.94
2018-09-12T12:47:02.381Z,96119.50
2018-09-12T12:49:38.352Z,96110.49
2018-09-12T12:52:13.192Z,96100.40
2018-09-12T12:54:49.819Z,96096.71
2018-09-12T12:57:24.529Z,96092.19
2018-09-12T12:59:59.471Z,96085.42
2018-09-12T13:02:34.420Z,96080.02
2018-09-12T13:05:09.533Z,96078.11
2018-09-12T13:07:44.165Z,96069.23
2018-09-12T13:10:19.124Z,96064.61
2018-09-12T13:12:53.704Z,96063.05
2018-09-12T13:15:28.731Z,96057.30
2018-09-12T13:18:03.173Z,96058.10
2018-09-12T13:20:37.903Z,96057.09
2018-09-12T13:23:12.274Z,96048.27
2018-09-12T13:25:46.848Z,96055.29
2018-09-12T13:28:21.570Z,96052.21
2018-09-12T13:30:56.203Z,96049.48
2018-09-12T13:33:31.059Z,96052.80
2018-09-12T13:36:05.815Z,96046.27
2018-09-12T13:38:40.207Z,96044.02
2018-09-12T13:41:15.227Z,96044.34
2018-09-12T13:43:49.781Z,96043.48
2018-09-12T13:46:24.668Z,96034.72
2018-09-12T13:48:59.654Z,96030.27
2018-09-12T13:51:34.404Z,96027.19
2018-09-12T13:54:08.921Z,96021.52
2018-09-12T13:56:43.539Z,96020.98
2018-09-12T13:59:18.150Z,96023.37
2018-09-12T14:01:53.207Z,96025.16
2018-09-12T14:04:27.472Z,96019.23
2018-09-12T14:07:01.976Z,96017.00
2018-09-12T14:09:36.862Z,96007.86
2018-09-12T14:12:11.528Z,96003.65
2018-09-12T14:14:45.923Z,96000.66
2018-09-12T14:17:20.439Z,96003.99
2018-09-12T14:19:55.184Z,95999.13
2018-09-12T14:22:29.931Z,96001.92
2018-09-12T14:25:04.332Z,96004.06
2018-09-12T14:27:39.147Z,95996.61
2018-09-12T14:30:13.644Z,95997.05
2018-09-12T14:32:48.200Z,95993.14
2018-09-12T14:35:22.623Z,95982.39
2018-09-12T14:37:57.041Z,95974.09
2018-09-12T14:40:31.669Z,95961.30
2018-09-12T14:43:06.609Z,95967.21
2018-09-12T14:45:41.563Z,95970.94
2018-09-12T14:48:16.082Z,95964.52
2018-09-12T14:50:51.084Z,95965.48
2018-09-12T14:53:25.731Z,95965.62
2018-09-12T14:56:00.699Z,95967.27
2018-09-12T14:58:35.491Z,95957.11
2018-09-12T15:01:10.216Z,95964.09
2018-09-12T15:03:44.852Z,95962.02
2018-09-12T15:06:19.312Z,95961.96
2018-09-12T15:08:53.725Z,95951.31
2018-09-12T15:11:28.463Z,95957.78
2018-09-12T15:14:03.454Z,95956.38
2018-09-12T15:16:38.035Z,95952.89
2018-09-12T15:19:12.671Z,95946.58
2018-09-12T15:21:47.160Z,95944.19
2018-09-12T15:24:22.660Z,95946.02
2018-09-12T15:26:57.156Z,95943.45
2018-09-12T15:29:31.868Z,95943.40
2018-09-12T15:32:06.604Z,95943.77
2018-09-12T15:34:41.760Z,95937.13
2018-09-12T15:37:16.254Z,95935.34
2018-09-12T15:39:51.614Z,95938.63
2018-09-12T15:42:26.268Z,95931.48
2018-09-12T15:45:00.984Z,95933.77
2018-09-12T15:47:35.877Z,95935.29
2018-09-12T15:50:10.473Z,95936.02
2018-09-12T15:52:44.874Z,95926.02
2018-09-12T15:55:19.377Z,95932.81
2018-09-12T15:57:53.883Z,95927.64
2018-09-12T16:00:28.905Z,95929.20
2018-09-12T16:03:03.593Z,95922.20
2018-09-12T16:05:38.613Z,95918.20
2018-09-12T16:08:13.265Z,95917.09
2018-09-12T16:10:48.065Z,95914.75
2018-09-12T16:13:23.286Z,95904.91
2018-09-12T16:16:00.836Z,95900.67
2018-09-12T16:18:35.773Z,95902.37
2018-09-12T16:21:10.799Z,95900.98
2018-09-12T16:23:45.432Z,95903.16
2018-09-12T16:26:20.580Z,95894.89
2018-09-12T16:28:54.964Z,95892.25
2018-09-12T16:31:29.640Z,95890.77
2018-09-12T16:34:04.328Z,95890.63
2018-09-12T16:36:39.193Z,95887.50
2018-09-12T16:39:14.059Z,95884.16
2018-09-12T16:41:48.946Z,95882.91
2018-09-12T16:44:23.380Z,95877.03
2018-09-12T16:46:57.665Z,95882.73
2018-09-12T16:49:31.944Z,95882.31
2018-09-12T16:52:06.591Z,95887.20
2018-09-12T16:54:41.046Z,95885.14
2018-09-12T16:57:15.481Z,95882.73
2018-09-12T16:59:50.122Z,95884.15
2018-09-12T17:02:24.538Z,95878.31
2018-09-12T17:04:58.967Z,95882.34
2018-09-12T17:07:33.377Z,95881.87
2018-09-12T17:10:07.739Z,95884.03
2018-09-12T17:12:42.579Z,95881.10
2018-09-12T17:15:17.019Z,95882.73
2018-09-12T17:17:51.859Z,95891.00
2018-09-12T17:20:26.349Z,95886.23
2018-09-12T17:23:01.398Z,95884.86
2018-09-12T17:25:36.060Z,95888.05
2018-09-12T17:28:11.458Z,95886.16
2018-09-12T17:30:46.327Z,95887.98
2018-09-12T17:33:20.772Z,95880.00
2018-09-12T17:35:55.455Z,95875.98
2018-09-12T17:38:29.980Z,95878.88
2018-09-12T17:41:04.235Z,95878.30
2018-09-12T17:43:38.685Z,95882.55
2018-09-12T17:46:13.503Z,95883.29
2018-09-12T17:48:47.980Z,95880.30
2018-09-12T17:51:22.428Z,95877.28
2018-09-12T17:53:56.895Z,95878.51
2018-09-12T17:56:31.515Z,95881.13
2018-09-12T17:59:06.694Z,95879.98
2018-09-12T18:01:41.279Z,95879.88
2018-09-12T18:04:15.748Z,95880.87
2018-09-12T18:06:50.156Z,95887.45
2018-09-12T18:09:24.525Z,95890.34
2018-09-12T18:11:59.024Z,95897.72
2018-09-12T18:14:34.000Z,95902.99
2018-09-12T18:17:08.525Z,95903.28
2018-09-12T18:19:43.273Z,95909.23
2018-09-12T18:22:17.720Z,95913.94
2018-09-12T18:24:52.484Z,95914.63
2018-09-12T18:27:27.150Z,95915.68
2018-09-12T18:30:01.596Z,95921.53
2018-09-12T18:32:36.015Z,95926.13
2018-09-12T18:35:10.869Z,95932.38
2018-09-12T18:37:45.627Z,95933.36
2018-09-12T18:40:20.309Z,95931.63
2018-09-12T18:42:54.653Z,95931.70
2018-09-12T18:45:29.677Z,95931.65
2018-09-12T18:48:04.373Z,95931.87
2018-09-12T18:50:41.170Z,95930.92
2018-09-12T18:53:16.217Z,95930.31
2018-09-12T18:55:50.731Z,95929.42
2018-09-12T18:58:25.048Z,95924.84
2018-09-12T19:00:59.851Z,95923.73
2018-09-12T19:03:34.265Z,95924.16
2018-09-12T19:06:08.717Z,95922.19
2018-09-12T19:08:42.992Z,95925.81
2018-09-12T19:11:17.736Z,95921.74
2018-09-12T19:13:52.146Z,95929.47
2018-09-12T19:16:26.600Z,95931.01
2018-09-12T19:19:02.538Z,95934.47
2018-09-12T19:21:37.003Z,95936.13
2018-09-12T19:24:11.467Z,95937.83
2018-09-12T19:26:45.892Z,95932.67
2018-09-12T19:29:20.182Z,95939.81
2018-09-12T19:31:54.942Z,95942.90
2018-09-12T19:34:29.396Z,95948.31
2018-09-12T19:37:03.720Z,95941.30
2018-09-12T19:39:38.353Z,95947.52
2018-09-12T19:42:12.833Z,95952.92
2018-09-12T19:44:47.823Z,95951.96
2018-09-12T19:47:22.772Z,95953.48
2018-09-12T19:49:57.943Z,95956.80
2018-09-12T19:52:32.544Z,95953.76
2018-09-12T19:55:07.599Z,95955.23
2018-09-12T19:57:43.571Z,95953.58
2018-09-12T20:00:19.617Z,95952.61
2018-09-12T20:02:54.440Z,95955.44
2018-09-12T20:05:29.751Z,95956.91
2018-09-12T20:08:04.404Z,95953.47
2018-09-12T20:10:39.075Z,95948.94
2018-09-12T20:13:13.820Z,95945.50
2018-09-12T20:15:59.121Z,95947.91
2018-09-12T20:18:33.901Z,95944.46
2018-09-12T20:21:09.333Z,95949.74
2018-09-12T20:23:43.921Z,95939.89
2018-09-12T20:26:19.620Z,95942.30
2018-09-12T20:28:54.193Z,95935.88
2018-09-12T20:31:28.539Z,95937.44
2018-09-12T20:34:03.558Z,95938.00
2018-09-12T20:36:38.258Z,95931.21
2018-09-12T20:39:13.059Z,95933.80
2018-09-12T20:41:47.708Z,95931.97
2018-09-12T20:44:22.195Z,95931.63
2018-09-12T20:46:56.634Z,95934.41
2018-09-12T20:49:31.561Z,95930.50
2018-09-12T20:52:06.718Z,95933.33
2018-09-12T20:54:41.313Z,95926.77
2018-09-12T20:57:15.987Z,95927.25
2018-09-12T20:59:51.284Z,95926.40
2018-09-12T21:02:27.320Z,95925.83
2018-09-12T21:05:03.295Z,95927.86
2018-09-12T21:07:38.267Z,95931.51
2018-09-12T21:10:13.244Z,95920.95
2018-09-12T21:12:47.690Z,95927.55
2018-09-12T21:15:22.229Z,95927.22
2018-09-12T21:17:56.664Z,95929.99
2018-09-12T21:20:32.187Z,95926.03
2018-09-12T21:23:07.051Z,95921.84
2018-09-12T21:25:41.466Z,95916.74
2018-09-12T21:28:16.189Z,95915.66
2018-09-12T21:30:50.629Z,95913.30
2018-09-12T21:33:25.281Z,95917.13
2018-09-12T21:35:59.603Z,95908.70
2018-09-12T21:38:33.927Z,95911.00
2018-09-12T21:41:08.333Z,95911.98
2018-09-12T21:43:42.709Z,95911.28
2018-09-12T21:46:17.443Z,95916.00
2018-09-12T21:48:52.035Z,95915.72
2018-09-12T21:51:26.516Z,95910.10
2018-09-12T21:54:02.011Z,95907.56
2018-09-12T21:56:36.803Z,95903.76
2018-09-12T21:59:11.417Z,95898.89
2018-09-12T22:01:45.781Z,95897.01
2018-09-12T22:04:20.236Z,95895.55
2018-09-12T22:06:55.340Z,95904.79
2018-09-12T22:09:29.839Z,95899.87
2018-09-12T22:12:07.068Z,95899.82
2018-09-12T22:14:41.692Z,95889.66
2018-09-12T22:17:16.426Z,95892.00
2018-09-12T22:19:51.063Z,95881.63
2018-09-12T22:22:25.441Z,95888.97
2018-09-12T22:25:00.340Z,95888.97
2018-09-12T22:27:35.570Z,95887.99
2018-09-12T22:30:10.488Z,95885.07
2018-09-12T22:32:47.196Z,95878.66
2018-09-12T22:35:25.547Z,95882.02
2018-09-12T22:38:00.894Z,95882.47
2018-09-12T22:40:35.492Z,95884.83
2018-09-12T22:43:10.388Z,95884.78
2018-09-12T22:45:45.300Z,95884.45
2018-09-12T22:48:19.844Z,95885.86
2018-09-12T22:50:54.288Z,95880.94
2018-09-12T22:53:31.416Z,95885.27
2018-09-12T22:56:11.754Z,95881.20
2018-09-12T22:58:48.493Z,95880.28
2018-09-12T23:01:25.290Z,95877.94
2018-09-12T23:04:00.245Z,95874.30
2018-09-12T23:06:34.684Z,95874.52
2018-09-12T23:09:09.999Z,95871.20
2018-09-12T23:11:44.419Z,95867.48
2018-09-12T23:14:19.240Z,95863.18
2018-09-12T23:16:57.676Z,95855.96
2018-09-12T23:19:32.655Z,95852.38
2018-09-12T23:22:07.141Z,95852.75
2018-09-12T23:24:41.629Z,95848.25
2018-09-12T23:30:12.852Z,95848.95
2018-09-12T23:32:47.873Z,95850.49
2018-09-12T23:35:22.399Z,95844.71
2018-09-12T23:37:56.872Z,95848.13
2018-09-12T23:40:31.343Z,95842.12
2018-09-12T23:43:06.200Z,95843.55
2018-09-12T23:45:40.528Z,95839.61
2018-09-12T23:48:15.184Z,95833.99
2018-09-12T23:50:49.466Z,95833.55
2018-09-12T23:53:24.143Z,95838.41
2018-09-12T23:55:58.951Z,95837.61
2018-09-12T23:58:33.643Z,95832.56
